createdAt,value
2022-11-16T00:00:16.455Z,280.40
2022-11-16T00:01:16.444Z,270.60
2022-11-16T00:02:16.545Z,275.60
2022-11-16T00:03:16.417Z,262.00
2022-11-16T00:04:16.441Z,263.70
2022-11-16T00:05:16.401Z,343.60
2022-11-16T00:06:16.397Z,352.90
2022-11-16T00:07:16.433Z,363.20
2022-11-16T00:08:16.361Z,362.40
2022-11-16T00:09:16.379Z,353.50
2022-11-16T00:10:16.339Z,358.00
2022-11-16T00:11:16.325Z,361.40
2022-11-16T00:12:16.341Z,357.40
2022-11-16T00:13:16.335Z,368.20
2022-11-16T00:14:16.338Z,368.00
2022-11-16T00:15:16.277Z,366.00
2022-11-16T00:16:16.264Z,351.00
2022-11-16T00:17:16.260Z,343.00
2022-11-16T00:18:16.249Z,350.40
2022-11-16T00:19:16.243Z,349.70
2022-11-16T00:20:16.272Z,363.60
2022-11-16T00:21:16.210Z,391.20
2022-11-16T00:22:16.213Z,386.30
2022-11-16T00:23:16.187Z,389.80
2022-11-16T00:24:16.182Z,391.40
2022-11-16T00:25:16.197Z,407.30
2022-11-16T00:26:16.163Z,407.40
2022-11-16T00:27:16.149Z,412.50
2022-11-16T00:28:16.133Z,409.80
2022-11-16T00:29:16.125Z,350.40
2022-11-16T00:30:16.149Z,321.20
2022-11-16T00:31:16.099Z,304.70
2022-11-16T00:32:16.086Z,401.10
2022-11-16T00:33:16.081Z,396.00
2022-11-16T00:34:16.071Z,350.60
2022-11-16T00:35:16.094Z,409.00
2022-11-16T00:36:16.049Z,430.20
2022-11-16T00:37:16.159Z,439.00
2022-11-16T00:38:16.022Z,456.00
2022-11-16T00:39:16.011Z,455.30
2022-11-16T00:40:16.039Z,470.20
2022-11-16T00:41:15.986Z,429.40
2022-11-16T00:42:15.981Z,410.80
2022-11-16T00:43:15.977Z,463.20
2022-11-16T00:44:15.955Z,462.80
2022-11-16T00:45:15.984Z,461.30
2022-11-16T00:46:15.930Z,459.60
2022-11-16T00:47:15.933Z,410.90
2022-11-16T00:48:15.901Z,261.20
2022-11-16T00:49:15.901Z,350.00
2022-11-16T00:50:15.916Z,341.20
2022-11-16T00:51:15.887Z,360.60
2022-11-16T00:52:15.848Z,241.40
2022-11-16T00:53:15.848Z,316.10
2022-11-16T00:54:15.856Z,245.80
2022-11-16T00:55:15.858Z,353.50
2022-11-16T00:56:15.803Z,420.90
2022-11-16T00:57:15.807Z,426.60
2022-11-16T00:58:15.800Z,479.10
2022-11-16T00:59:15.802Z,478.30
2022-11-16T01:00:15.840Z,486.60
2022-11-16T01:01:15.779Z,481.10
2022-11-16T01:02:15.751Z,488.50
2022-11-16T01:03:15.744Z,479.50
2022-11-16T01:04:15.732Z,479.40
2022-11-16T01:05:15.756Z,479.00
2022-11-16T01:06:15.713Z,478.10
2022-11-16T01:07:15.740Z,455.80
2022-11-16T01:08:15.695Z,443.20
2022-11-16T01:09:15.677Z,440.00
2022-11-16T01:10:15.688Z,419.10
2022-11-16T01:11:15.656Z,394.10
2022-11-16T01:12:15.652Z,378.60
2022-11-16T01:13:15.627Z,381.30
2022-11-16T01:14:15.623Z,340.90
2022-11-16T01:15:15.639Z,314.60
2022-11-16T01:16:15.614Z,312.80
2022-11-16T01:17:15.600Z,273.70
2022-11-16T01:18:15.577Z,280.20
2022-11-16T01:19:15.573Z,270.60
2022-11-16T01:20:15.591Z,252.30
2022-11-16T01:21:15.560Z,259.10
2022-11-16T01:22:15.517Z,258.80
2022-11-16T01:23:15.535Z,246.60
2022-11-16T01:24:15.511Z,255.90
2022-11-16T01:25:15.537Z,257.70
2022-11-16T01:26:15.493Z,266.20
2022-11-16T01:27:15.474Z,272.90
2022-11-16T01:28:15.470Z,273.50
2022-11-16T01:29:15.461Z,280.70
2022-11-16T01:30:15.462Z,271.10
2022-11-16T01:31:15.437Z,284.30
2022-11-16T01:32:15.451Z,289.30
2022-11-16T01:33:15.402Z,291.20
2022-11-16T01:34:15.388Z,306.60
2022-11-16T01:35:15.404Z,299.10
2022-11-16T01:36:15.358Z,304.90
2022-11-16T01:37:15.374Z,319.00
2022-11-16T01:38:15.348Z,314.70
2022-11-16T01:39:15.351Z,313.00
2022-11-16T01:40:15.352Z,321.00
2022-11-16T01:41:15.303Z,330.00
2022-11-16T01:42:15.311Z,322.80
2022-11-16T01:43:15.302Z,313.40
2022-11-16T01:44:15.286Z,327.50
2022-11-16T01:45:15.332Z,322.40
2022-11-16T01:46:15.290Z,321.80
2022-11-16T01:47:15.252Z,327.90
2022-11-16T01:48:15.328Z,336.20
2022-11-16T01:49:15.229Z,345.90
2022-11-16T01:50:15.254Z,338.40
2022-11-16T01:51:15.210Z,342.70
2022-11-16T01:52:15.196Z,342.60
2022-11-16T01:53:15.195Z,345.80
2022-11-16T01:54:15.167Z,351.60
2022-11-16T01:55:15.196Z,366.60
2022-11-16T01:56:15.145Z,372.80
2022-11-16T01:57:15.148Z,379.50
2022-11-16T01:58:15.126Z,377.80
2022-11-16T01:59:15.112Z,387.10
2022-11-16T02:00:15.128Z,389.80
2022-11-16T02:01:15.154Z,399.90
2022-11-16T02:02:15.111Z,380.40
2022-11-16T02:03:15.071Z,405.00
2022-11-16T02:04:15.069Z,391.00
2022-11-16T02:05:15.113Z,407.70
2022-11-16T02:06:15.051Z,405.10
2022-11-16T02:07:15.101Z,403.50
2022-11-16T02:08:15.004Z,397.10
2022-11-16T02:09:14.989Z,402.00
2022-11-16T02:10:15.026Z,417.00
2022-11-16T02:11:14.968Z,421.90
2022-11-16T02:12:14.950Z,427.10
2022-11-16T02:13:14.969Z,429.10
2022-11-16T02:14:14.946Z,433.10
2022-11-16T02:15:14.952Z,434.60
2022-11-16T02:16:14.949Z,436.50
2022-11-16T02:17:14.908Z,438.50
2022-11-16T02:18:14.937Z,432.00
2022-11-16T02:19:14.890Z,462.90
2022-11-16T02:20:14.895Z,456.00
2022-11-16T02:21:14.917Z,457.70
2022-11-16T02:22:14.876Z,466.50
2022-11-16T02:23:14.848Z,473.90
2022-11-16T02:24:14.826Z,471.70
2022-11-16T02:25:14.836Z,487.70
2022-11-16T02:26:14.850Z,481.10
2022-11-16T02:27:14.814Z,488.60
2022-11-16T02:28:14.789Z,480.30
2022-11-16T02:29:14.801Z,485.30
2022-11-16T02:30:14.774Z,502.30
2022-11-16T02:31:14.813Z,501.60
2022-11-16T02:32:14.770Z,501.30
2022-11-16T02:33:14.738Z,493.80
2022-11-16T02:34:14.721Z,511.00
2022-11-16T02:35:14.720Z,487.90
2022-11-16T02:36:14.733Z,489.90
2022-11-16T02:37:14.696Z,488.70
2022-11-16T02:38:14.682Z,491.00
2022-11-16T02:39:14.682Z,503.70
2022-11-16T02:40:14.640Z,510.30
2022-11-16T02:41:14.709Z,497.10
2022-11-16T02:42:14.629Z,502.60
2022-11-16T02:43:14.636Z,509.70
2022-11-16T02:44:14.617Z,511.90
2022-11-16T02:45:14.625Z,516.00
2022-11-16T02:46:14.611Z,508.10
2022-11-16T02:47:14.570Z,508.60
2022-11-16T02:48:14.543Z,511.70
2022-11-16T02:49:14.550Z,511.80
2022-11-16T02:50:14.551Z,501.70
2022-11-16T02:51:14.568Z,503.40
2022-11-16T02:52:14.543Z,511.50
2022-11-16T02:53:14.508Z,516.50
2022-11-16T02:54:14.506Z,514.60
2022-11-16T02:55:14.495Z,517.50
2022-11-16T02:56:14.515Z,510.60
2022-11-16T02:57:14.787Z,511.10
2022-11-16T02:58:14.468Z,499.70
2022-11-16T02:59:17.632Z,509.00
2022-11-16T03:00:14.425Z,478.60
2022-11-16T03:01:14.485Z,511.60
2022-11-16T03:02:14.422Z,526.10
2022-11-16T03:03:14.390Z,520.40
2022-11-16T03:04:14.378Z,496.10
2022-11-16T03:05:14.388Z,529.80
2022-11-16T03:06:14.411Z,522.00
2022-11-16T03:07:14.406Z,531.00
2022-11-16T03:08:14.356Z,519.20
2022-11-16T03:09:14.361Z,518.40
2022-11-16T03:10:14.321Z,524.80
2022-11-16T03:11:14.369Z,521.20
2022-11-16T03:12:14.304Z,512.40
2022-11-16T03:13:14.285Z,527.30
2022-11-16T03:14:14.289Z,536.60
2022-11-16T03:15:14.257Z,521.70
2022-11-16T03:16:14.275Z,508.60
2022-11-16T03:17:14.290Z,540.20
2022-11-16T03:18:14.289Z,518.60
2022-11-16T03:19:14.232Z,531.80
2022-11-16T03:20:14.208Z,516.50
2022-11-16T03:21:14.218Z,518.00
2022-11-16T03:22:14.210Z,527.00
2022-11-16T03:23:14.186Z,518.90
2022-11-16T03:24:14.167Z,536.20
2022-11-16T03:25:14.152Z,534.60
2022-11-16T03:26:14.156Z,529.70
2022-11-16T03:27:14.165Z,523.20
2022-11-16T03:28:14.128Z,357.00
2022-11-16T03:29:14.136Z,486.50
2022-11-16T03:30:14.111Z,148.00
2022-11-16T03:31:14.112Z,266.70
2022-11-16T03:32:14.110Z,127.70
2022-11-16T03:33:14.062Z,141.20
2022-11-16T03:34:14.064Z,320.60
2022-11-16T03:35:14.057Z,239.90
2022-11-16T03:36:14.040Z,173.20
2022-11-16T03:37:14.046Z,270.10
2022-11-16T03:38:14.020Z,225.80
2022-11-16T03:39:14.013Z,172.30
2022-11-16T03:40:14.003Z,197.80
2022-11-16T03:41:13.995Z,219.60
2022-11-16T03:42:14.015Z,200.70
2022-11-16T03:43:13.975Z,225.80
2022-11-16T03:44:13.949Z,252.10
2022-11-16T03:45:13.945Z,300.20
2022-11-16T03:46:13.922Z,207.70
2022-11-16T03:47:13.955Z,194.10
2022-11-16T03:48:13.899Z,208.90
2022-11-16T03:49:13.915Z,215.30
2022-11-16T03:50:13.884Z,230.00
2022-11-16T03:51:13.880Z,323.40
2022-11-16T03:52:13.881Z,433.80
2022-11-16T03:53:13.854Z,224.60
2022-11-16T03:54:13.842Z,208.80
2022-11-16T03:55:13.829Z,237.30
2022-11-16T03:56:13.827Z,235.20
2022-11-16T03:57:13.849Z,214.00
2022-11-16T03:58:13.779Z,211.40
2022-11-16T03:59:13.781Z,201.50
2022-11-16T04:00:13.765Z,219.00
2022-11-16T04:01:13.776Z,227.80
2022-11-16T04:02:13.785Z,326.00
2022-11-16T04:03:13.749Z,239.70
2022-11-16T04:04:13.759Z,208.10
2022-11-16T04:05:13.747Z,222.30
2022-11-16T04:06:13.702Z,200.20
2022-11-16T04:07:13.751Z,277.10
2022-11-16T04:08:13.679Z,278.70
2022-11-16T04:09:13.668Z,187.80
2022-11-16T04:10:13.670Z,408.60
2022-11-16T04:11:13.652Z,222.80
2022-11-16T04:12:13.669Z,406.20
2022-11-16T04:13:13.645Z,239.00
2022-11-16T04:14:13.623Z,216.70
2022-11-16T04:15:13.610Z,195.70
2022-11-16T04:16:13.574Z,212.20
2022-11-16T04:17:13.624Z,179.50
2022-11-16T04:18:13.556Z,219.40
2022-11-16T04:19:13.548Z,351.80
2022-11-16T04:20:13.543Z,328.10
2022-11-16T04:21:13.562Z,413.00
2022-11-16T04:22:13.593Z,172.30
2022-11-16T04:23:13.520Z,335.30
2022-11-16T04:24:13.534Z,188.90
2022-11-16T04:25:13.496Z,194.30
2022-11-16T04:26:13.489Z,205.80
2022-11-16T04:27:13.512Z,222.00
2022-11-16T04:28:13.491Z,323.10
2022-11-16T04:29:13.443Z,245.90
2022-11-16T04:30:13.423Z,322.60
2022-11-16T04:31:13.424Z,206.60
2022-11-16T04:32:13.459Z,181.90
2022-11-16T04:33:13.413Z,308.10
2022-11-16T04:34:13.369Z,186.40
2022-11-16T04:35:13.357Z,178.40
2022-11-16T04:36:17.865Z,215.10
2022-11-16T04:37:14.379Z,202.70
2022-11-16T04:38:13.347Z,180.80
2022-11-16T04:39:13.356Z,198.40
2022-11-16T04:40:13.327Z,204.30
2022-11-16T04:41:13.316Z,210.50
2022-11-16T04:42:13.291Z,315.40
2022-11-16T04:43:13.317Z,207.40
2022-11-16T04:44:13.261Z,203.10
2022-11-16T04:45:13.268Z,358.70
2022-11-16T04:46:13.243Z,359.30
2022-11-16T04:47:13.245Z,398.60
2022-11-16T04:48:13.269Z,382.80
2022-11-16T04:49:13.203Z,261.40
2022-11-16T04:50:13.232Z,405.50
2022-11-16T04:51:13.187Z,321.20
2022-11-16T04:52:13.163Z,210.10
2022-11-16T04:53:13.213Z,185.20
2022-11-16T04:54:13.142Z,174.00
2022-11-16T04:55:13.150Z,274.70
2022-11-16T04:56:13.122Z,281.90
2022-11-16T04:57:13.126Z,186.50
2022-11-16T04:58:13.148Z,274.90
2022-11-16T04:59:13.100Z,313.90
2022-11-16T05:00:13.083Z,190.10
2022-11-16T05:01:13.112Z,224.30
2022-11-16T05:02:13.072Z,261.60
2022-11-16T05:03:13.104Z,189.00
2022-11-16T05:04:13.053Z,218.40
2022-11-16T05:05:13.019Z,265.90
2022-11-16T05:06:13.039Z,228.80
2022-11-16T05:07:13.077Z,194.70
2022-11-16T05:08:12.987Z,222.00
2022-11-16T05:09:13.003Z,274.10
2022-11-16T05:10:12.978Z,277.70
2022-11-16T05:11:12.939Z,353.20
2022-11-16T05:12:12.950Z,362.20
2022-11-16T05:13:12.924Z,379.40
2022-11-16T05:14:12.970Z,389.20
2022-11-16T05:15:12.911Z,380.40
2022-11-16T05:16:12.908Z,389.00
2022-11-16T05:17:12.889Z,396.20
2022-11-16T05:18:12.891Z,385.70
2022-11-16T05:19:12.908Z,407.90
2022-11-16T05:20:12.880Z,393.70
2022-11-16T05:21:12.847Z,418.90
2022-11-16T05:22:12.837Z,405.60
2022-11-16T05:23:12.834Z,388.70
2022-11-16T05:24:12.870Z,422.00
2022-11-16T05:25:12.809Z,444.00
2022-11-16T05:26:12.810Z,418.20
2022-11-16T05:27:12.782Z,428.90
2022-11-16T05:28:12.779Z,412.40
2022-11-16T05:29:12.798Z,430.50
2022-11-16T05:30:12.767Z,424.60
2022-11-16T05:31:12.747Z,437.00
2022-11-16T05:32:12.737Z,451.70
2022-11-16T05:33:12.709Z,430.70
2022-11-16T05:34:12.749Z,423.20
2022-11-16T05:35:12.699Z,428.90
2022-11-16T05:36:12.712Z,427.90
2022-11-16T05:37:12.680Z,430.70
2022-11-16T05:38:12.656Z,412.50
2022-11-16T05:39:12.670Z,173.50
2022-11-16T05:40:12.637Z,397.50
2022-11-16T05:41:12.626Z,174.00
2022-11-16T05:42:12.615Z,287.40
2022-11-16T05:43:12.583Z,234.90
2022-11-16T05:44:12.652Z,274.70
2022-11-16T05:45:15.952Z,232.40
2022-11-16T05:46:13.581Z,375.40
2022-11-16T05:47:12.535Z,209.00
2022-11-16T05:48:12.531Z,309.90
2022-11-16T05:49:12.544Z,241.10
2022-11-16T05:50:12.514Z,161.40
2022-11-16T05:51:12.515Z,178.20
2022-11-16T05:52:12.496Z,314.40
2022-11-16T05:53:12.495Z,348.20
2022-11-16T05:54:12.505Z,320.80
2022-11-16T05:55:12.479Z,354.00
2022-11-16T05:56:12.503Z,225.70
2022-11-16T05:57:12.448Z,167.00
2022-11-16T05:58:12.440Z,168.70
2022-11-16T05:59:16.323Z,161.50
2022-11-16T06:00:12.420Z,224.60
2022-11-16T06:01:12.383Z,240.30
2022-11-16T06:02:12.400Z,316.60
2022-11-16T06:03:12.401Z,292.10
2022-11-16T06:04:12.395Z,171.40
2022-11-16T06:05:12.366Z,201.20
2022-11-16T06:06:12.331Z,184.80
2022-11-16T06:07:12.384Z,163.30
2022-11-16T06:08:12.314Z,295.50
2022-11-16T06:09:12.335Z,177.00
2022-11-16T06:10:12.292Z,301.10
2022-11-16T06:11:12.264Z,169.80
2022-11-16T06:12:12.286Z,211.30
2022-11-16T06:13:12.253Z,244.90
2022-11-16T06:14:12.276Z,247.90
2022-11-16T06:15:12.218Z,160.10
2022-11-16T06:16:12.228Z,307.80
2022-11-16T06:17:12.208Z,289.80
2022-11-16T06:18:12.211Z,215.70
2022-11-16T06:19:12.222Z,297.80
2022-11-16T06:20:12.178Z,326.20
2022-11-16T06:21:12.207Z,339.00
2022-11-16T06:22:12.140Z,348.40
2022-11-16T06:23:12.134Z,362.60
2022-11-16T06:24:12.158Z,359.50
2022-11-16T06:25:12.097Z,331.70
2022-11-16T06:26:12.123Z,362.30
2022-11-16T06:27:12.107Z,342.20
2022-11-16T06:28:12.101Z,361.20
2022-11-16T06:29:12.087Z,358.40
2022-11-16T06:30:12.116Z,359.80
2022-11-16T06:31:12.043Z,364.70
2022-11-16T06:32:12.051Z,360.70
2022-11-16T06:33:12.013Z,155.70
2022-11-16T06:34:12.018Z,176.30
2022-11-16T06:35:12.055Z,154.10
2022-11-16T06:36:12.016Z,163.90
2022-11-16T06:37:11.992Z,222.20
2022-11-16T06:38:11.979Z,273.00
2022-11-16T06:39:11.957Z,221.00
2022-11-16T06:40:11.979Z,214.90
2022-11-16T06:41:11.943Z,189.70
2022-11-16T06:42:11.937Z,282.20
2022-11-16T06:43:11.899Z,230.20
2022-11-16T06:44:11.919Z,301.80
2022-11-16T06:45:11.929Z,320.10
2022-11-16T06:46:11.883Z,161.80
2022-11-16T06:47:11.871Z,335.80
2022-11-16T06:48:11.860Z,139.20
2022-11-16T06:49:11.869Z,239.10
2022-11-16T06:50:11.878Z,287.10
2022-11-16T06:51:11.826Z,235.90
2022-11-16T06:52:11.816Z,273.50
2022-11-16T06:53:11.783Z,181.80
2022-11-16T06:54:11.796Z,330.40
2022-11-16T06:55:11.825Z,136.10
2022-11-16T06:56:11.777Z,169.20
2022-11-16T06:57:11.748Z,130.80
2022-11-16T06:58:11.727Z,134.50
2022-11-16T06:59:11.715Z,303.30
2022-11-16T07:00:11.772Z,257.30
2022-11-16T07:01:11.754Z,187.20
2022-11-16T07:02:11.743Z,326.00
2022-11-16T07:03:11.710Z,230.20
2022-11-16T07:04:11.663Z,348.30
2022-11-16T07:05:11.708Z,115.40
2022-11-16T07:06:11.642Z,319.20
2022-11-16T07:07:11.725Z,342.10
2022-11-16T07:08:11.638Z,335.60
2022-11-16T07:09:11.624Z,328.60
2022-11-16T07:10:11.638Z,317.80
2022-11-16T07:11:11.606Z,323.40
2022-11-16T07:12:11.609Z,335.80
2022-11-16T07:13:11.566Z,319.10
2022-11-16T07:14:11.582Z,323.50
2022-11-16T07:15:11.593Z,326.70
2022-11-16T07:16:11.560Z,345.00
2022-11-16T07:17:11.520Z,328.20
2022-11-16T07:18:11.511Z,324.10
2022-11-16T07:19:11.512Z,347.80
2022-11-16T07:20:11.528Z,374.90
2022-11-16T07:21:11.490Z,365.30
2022-11-16T07:22:11.483Z,372.00
2022-11-16T07:23:14.203Z,378.00
2022-11-16T07:24:11.464Z,379.60
2022-11-16T07:25:11.474Z,364.40
2022-11-16T07:26:11.745Z,391.30
2022-11-16T07:27:11.408Z,393.00
2022-11-16T07:28:11.416Z,398.40
2022-11-16T07:29:11.391Z,389.30
2022-11-16T07:30:11.420Z,385.60
2022-11-16T07:31:11.382Z,381.10
2022-11-16T07:32:11.378Z,401.30
2022-11-16T07:33:11.347Z,375.50
2022-11-16T07:34:11.460Z,380.30
2022-11-16T07:35:11.347Z,386.90
2022-11-16T07:36:11.300Z,387.00
2022-11-16T07:37:11.313Z,399.10
2022-11-16T07:38:15.419Z,398.10
2022-11-16T07:39:12.276Z,393.60
2022-11-16T07:40:11.325Z,387.00
2022-11-16T07:41:11.267Z,351.30
2022-11-16T07:42:11.262Z,391.50
2022-11-16T07:43:11.557Z,377.80
2022-11-16T07:44:12.381Z,372.30
2022-11-16T07:45:11.193Z,369.30
2022-11-16T07:47:12.199Z,391.50
2022-11-16T07:48:11.209Z,376.20
2022-11-16T07:49:11.692Z,381.00
2022-11-16T07:50:11.163Z,378.70
2022-11-16T07:51:11.199Z,386.80
2022-11-16T07:52:11.156Z,376.50
2022-11-16T07:53:11.137Z,380.90
2022-11-16T07:54:11.132Z,395.50
2022-11-16T07:55:11.114Z,374.80
2022-11-16T07:56:11.137Z,380.70
2022-11-16T07:57:11.091Z,370.40
2022-11-16T07:58:11.077Z,384.90
2022-11-16T07:59:11.056Z,385.40
2022-11-16T08:00:11.051Z,379.40
2022-11-16T08:01:11.072Z,386.00
2022-11-16T08:02:11.091Z,376.10
2022-11-16T08:03:10.998Z,369.80
2022-11-16T08:04:11.015Z,380.50
2022-11-16T08:05:10.991Z,364.80
2022-11-16T08:06:11.023Z,373.80
2022-11-16T08:07:11.029Z,383.60
2022-11-16T08:08:10.957Z,383.40
2022-11-16T08:09:10.923Z,363.20
2022-11-16T08:10:10.958Z,396.10
2022-11-16T08:11:10.955Z,377.70
2022-11-16T08:12:10.906Z,374.90
2022-11-16T08:13:10.912Z,365.90
2022-11-16T08:14:10.890Z,368.50
2022-11-16T08:15:10.855Z,373.40
2022-11-16T08:16:10.895Z,380.40
2022-11-16T08:17:10.857Z,376.30
2022-11-16T08:18:10.841Z,372.00
2022-11-16T08:19:10.834Z,368.90
2022-11-16T08:20:10.829Z,387.00
2022-11-16T08:21:10.855Z,375.50
2022-11-16T08:22:10.790Z,377.00
2022-11-16T08:23:10.813Z,395.70
2022-11-16T08:24:10.772Z,383.40
2022-11-16T08:25:10.793Z,395.90
2022-11-16T08:26:10.795Z,378.50
2022-11-16T08:27:10.740Z,271.90
2022-11-16T08:28:10.746Z,95.40
2022-11-16T08:29:10.757Z,164.10
2022-11-16T08:30:10.705Z,85.40
2022-11-16T08:31:10.735Z,202.00
2022-11-16T08:32:10.703Z,202.30
2022-11-16T08:33:10.715Z,226.20
2022-11-16T08:34:10.682Z,249.30
2022-11-16T08:35:10.663Z,215.80
2022-11-16T08:36:14.044Z,81.90
2022-11-16T08:37:10.629Z,114.50
2022-11-16T08:38:10.636Z,449.40
2022-11-16T08:39:10.617Z,76.80
2022-11-16T08:40:10.598Z,81.30
2022-11-16T08:41:10.621Z,481.20
2022-11-16T08:42:10.583Z,329.30
2022-11-16T08:43:10.602Z,324.60
2022-11-16T08:44:10.540Z,300.40
2022-11-16T08:45:10.530Z,83.60
2022-11-16T08:46:10.554Z,145.70
2022-11-16T08:47:10.501Z,457.50
2022-11-16T08:48:10.541Z,202.00
2022-11-16T08:49:10.471Z,420.50
2022-11-16T08:50:10.495Z,397.80
2022-11-16T08:51:17.359Z,315.60
2022-11-16T08:52:11.467Z,269.50
2022-11-16T08:53:10.462Z,334.40
2022-11-16T08:54:10.442Z,288.00
2022-11-16T08:55:10.436Z,97.60
2022-11-16T08:56:10.421Z,448.60
2022-11-16T08:57:10.465Z,96.80
2022-11-16T08:58:10.419Z,461.80
2022-11-16T08:59:10.409Z,90.90
2022-11-16T09:00:10.366Z,244.10
2022-11-16T09:01:10.362Z,417.50
2022-11-16T09:02:10.463Z,133.90
2022-11-16T09:03:10.348Z,396.80
2022-11-16T09:04:10.340Z,398.50
2022-11-16T09:05:10.313Z,153.30
2022-11-16T09:06:10.333Z,427.10
2022-11-16T09:07:10.424Z,153.70
2022-11-16T09:08:10.319Z,447.70
2022-11-16T09:09:10.277Z,274.00
2022-11-16T09:10:10.284Z,202.60
2022-11-16T09:11:10.243Z,190.90
2022-11-16T09:12:10.289Z,449.70
2022-11-16T09:13:10.225Z,460.40
2022-11-16T09:14:10.217Z,252.10
2022-11-16T09:15:10.183Z,100.10
2022-11-16T09:16:10.541Z,302.90
2022-11-16T09:17:10.212Z,340.80
2022-11-16T09:18:10.172Z,156.00
2022-11-16T09:19:10.155Z,223.90
2022-11-16T09:20:10.131Z,409.90
2022-11-16T09:21:10.138Z,250.80
2022-11-16T09:22:10.156Z,252.60
2022-11-16T09:23:10.114Z,330.70
2022-11-16T09:24:10.133Z,237.50
2022-11-16T09:25:10.107Z,431.00
2022-11-16T09:26:10.069Z,425.00
2022-11-16T09:27:10.115Z,191.10
2022-11-16T09:28:10.064Z,355.50
2022-11-16T09:29:10.045Z,365.60
2022-11-16T09:30:10.027Z,147.80
2022-11-16T09:31:10.041Z,166.50
2022-11-16T09:32:10.058Z,400.40
2022-11-16T09:33:10.017Z,272.00
2022-11-16T09:34:09.994Z,444.10
2022-11-16T09:35:09.961Z,429.10
2022-11-16T09:36:09.974Z,456.70
2022-11-16T09:37:10.015Z,453.30
2022-11-16T09:38:09.943Z,443.00
2022-11-16T09:39:29.470Z,332.90
2022-11-16T09:40:11.234Z,142.60
2022-11-16T09:41:09.912Z,129.30
2022-11-16T09:42:09.936Z,395.80
2022-11-16T09:43:09.897Z,96.60
2022-11-16T09:44:09.886Z,464.10
2022-11-16T09:45:10.191Z,209.60
2022-11-16T09:46:09.842Z,126.30
2022-11-16T09:47:09.894Z,438.40
2022-11-16T09:48:09.843Z,433.80
2022-11-16T09:49:17.154Z,435.10
2022-11-16T09:50:10.807Z,432.10
2022-11-16T09:51:09.794Z,460.30
2022-11-16T09:52:09.809Z,407.90
2022-11-16T09:53:09.841Z,421.30
2022-11-16T09:54:09.767Z,390.60
2022-11-16T09:55:15.853Z,426.90
2022-11-16T09:56:10.764Z,397.60
2022-11-16T09:57:12.583Z,445.40
2022-11-16T09:58:09.748Z,418.10
2022-11-16T09:59:15.084Z,419.90
2022-11-16T10:00:10.692Z,391.50
2022-11-16T10:01:09.755Z,399.70
2022-11-16T10:02:09.677Z,388.50
2022-11-16T10:03:09.690Z,404.50
2022-11-16T10:04:09.663Z,381.80
2022-11-16T10:05:09.654Z,376.90
2022-11-16T10:06:09.629Z,395.10
2022-11-16T10:07:09.689Z,408.90
2022-11-16T10:08:09.645Z,384.90
2022-11-16T10:09:09.633Z,397.00
2022-11-16T10:10:09.613Z,443.30
2022-11-16T10:11:09.581Z,404.10
2022-11-16T10:12:09.580Z,409.40
2022-11-16T10:13:09.597Z,417.60
2022-11-16T10:14:09.556Z,400.10
2022-11-16T10:15:09.556Z,449.00
2022-11-16T10:16:09.521Z,424.20
2022-11-16T10:17:09.506Z,406.60
2022-11-16T10:18:09.523Z,453.70
2022-11-16T10:19:09.503Z,458.50
2022-11-16T10:20:09.475Z,426.60
2022-11-16T10:21:09.541Z,472.30
2022-11-16T10:22:09.461Z,477.70
2022-11-16T10:23:09.487Z,512.10
2022-11-16T10:24:09.444Z,482.80
2022-11-16T10:25:09.412Z,213.50
2022-11-16T10:26:09.404Z,217.80
2022-11-16T10:27:09.417Z,268.80
2022-11-16T10:28:09.434Z,277.50
2022-11-16T10:29:09.377Z,375.50
2022-11-16T10:30:09.350Z,311.10
2022-11-16T10:31:09.350Z,212.40
2022-11-16T10:32:09.318Z,447.90
2022-11-16T10:33:11.268Z,297.20
2022-11-16T10:34:09.314Z,376.90
2022-11-16T10:35:09.303Z,180.30
2022-11-16T10:36:09.310Z,400.30
2022-11-16T10:37:09.304Z,261.50
2022-11-16T10:38:09.284Z,196.20
2022-11-16T10:39:09.297Z,214.40
2022-11-16T10:40:09.237Z,154.70
2022-11-16T10:41:09.236Z,391.40
2022-11-16T10:42:09.246Z,213.20
2022-11-16T10:43:09.222Z,174.70
2022-11-16T10:44:09.244Z,396.20
2022-11-16T10:45:09.210Z,259.90
2022-11-16T10:46:09.184Z,331.90
2022-11-16T10:47:09.181Z,346.40
2022-11-16T10:48:09.144Z,152.30
2022-11-16T10:49:09.168Z,420.10
2022-11-16T10:50:09.139Z,207.60
2022-11-16T10:51:09.140Z,275.50
2022-11-16T10:52:09.116Z,387.60
2022-11-16T10:53:09.125Z,268.90
2022-11-16T10:54:09.114Z,335.20
2022-11-16T10:55:09.080Z,353.70
2022-11-16T10:56:09.089Z,297.70
2022-11-16T10:57:09.063Z,150.90
2022-11-16T10:58:09.059Z,215.60
2022-11-16T10:59:09.080Z,346.70
2022-11-16T11:00:12.706Z,207.10
2022-11-16T11:01:10.088Z,143.30
2022-11-16T11:02:09.020Z,388.20
2022-11-16T11:03:09.002Z,145.30
2022-11-16T11:04:09.033Z,401.90
2022-11-16T11:05:08.978Z,431.10
2022-11-16T11:06:08.953Z,432.80
2022-11-16T11:07:08.964Z,443.80
2022-11-16T11:08:08.924Z,389.40
2022-11-16T11:09:08.937Z,446.30
2022-11-16T11:10:08.921Z,459.40
2022-11-16T11:11:08.897Z,448.70
2022-11-16T11:12:08.881Z,466.90
2022-11-16T11:13:08.883Z,463.80
2022-11-16T11:14:08.895Z,466.10
2022-11-16T11:15:08.864Z,476.50
2022-11-16T11:16:08.855Z,276.60
2022-11-16T11:17:08.842Z,305.30
2022-11-16T11:18:08.821Z,303.10
2022-11-16T11:19:08.845Z,230.10
2022-11-16T11:20:08.794Z,352.10
2022-11-16T11:21:08.790Z,204.60
2022-11-16T11:22:08.776Z,188.50
2022-11-16T11:23:08.761Z,175.80
2022-11-16T11:24:42.296Z,278.00
2022-11-16T11:25:09.727Z,366.80
2022-11-16T11:26:08.735Z,180.50
2022-11-16T11:27:08.705Z,323.50
2022-11-16T11:28:08.717Z,318.60
2022-11-16T11:29:08.730Z,225.60
2022-11-16T11:30:08.708Z,430.40
2022-11-16T11:31:08.691Z,198.20
2022-11-16T11:32:08.656Z,158.70
2022-11-16T11:33:08.660Z,223.20
2022-11-16T11:34:08.674Z,301.30
2022-11-16T11:35:08.638Z,149.00
2022-11-16T11:36:08.602Z,134.20
2022-11-16T11:37:08.635Z,385.30
2022-11-16T11:38:08.691Z,259.30
2022-11-16T11:39:08.693Z,230.60
2022-11-16T11:40:08.579Z,112.80
2022-11-16T11:41:08.560Z,318.10
2022-11-16T11:42:08.527Z,251.60
2022-11-16T11:43:08.530Z,403.30
2022-11-16T11:44:08.537Z,193.60
2022-11-16T11:45:08.513Z,167.60
2022-11-16T11:46:08.536Z,285.00
2022-11-16T11:48:09.472Z,256.20
2022-11-16T11:49:08.504Z,388.00
2022-11-16T11:50:08.512Z,125.10
2022-11-16T11:51:08.464Z,376.80
2022-11-16T11:52:08.431Z,159.20
2022-11-16T11:53:08.446Z,268.50
2022-11-16T11:54:08.418Z,268.90
2022-11-16T11:55:08.464Z,223.50
2022-11-16T11:56:08.389Z,147.50
2022-11-16T11:57:08.375Z,233.40
2022-11-16T11:58:08.388Z,353.40
2022-11-16T11:59:08.358Z,143.00
2022-11-16T12:00:08.374Z,316.30
2022-11-16T12:01:08.327Z,305.00
2022-11-16T12:02:08.321Z,368.20
2022-11-16T12:03:08.385Z,262.70
2022-11-16T12:04:08.287Z,168.70
2022-11-16T12:05:08.314Z,160.20
2022-11-16T12:06:08.271Z,364.30
2022-11-16T12:07:08.343Z,169.90
2022-11-16T12:08:08.240Z,163.10
2022-11-16T12:09:08.274Z,390.20
2022-11-16T12:10:08.269Z,119.30
2022-11-16T12:11:08.234Z,174.70
2022-11-16T12:12:11.882Z,237.00
2022-11-16T12:13:09.204Z,288.50
2022-11-16T12:14:08.185Z,392.50
2022-11-16T12:15:08.191Z,234.60
2022-11-16T12:16:08.189Z,144.10
2022-11-16T12:17:08.153Z,224.60
2022-11-16T12:18:08.132Z,387.30
2022-11-16T12:19:08.137Z,179.70
2022-11-16T12:20:08.124Z,312.70
2022-11-16T12:21:08.140Z,148.80
2022-11-16T12:22:08.102Z,109.80
2022-11-16T12:23:08.108Z,240.50
2022-11-16T12:24:08.116Z,215.40
2022-11-16T12:25:08.066Z,364.20
2022-11-16T12:26:08.065Z,208.10
2022-11-16T12:27:08.041Z,280.80
2022-11-16T12:28:08.028Z,322.10
2022-11-16T12:29:08.056Z,116.30
2022-11-16T12:30:08.014Z,301.40